Flight Track Log - Related Links

Times and Time Zones

All times are in EDT time to prevent confusion due to time zone crossing. See the EJA922 flight status page for this flight to view local times or setup timezone preferences in your user account.

Time Position Orientation Groundspeed Altitude Reporting Facility
EDT Latitude Longitude Course Direction KTS MPH feet Rate Location/Type
Sun 11:32:10 AM 30.5453 -81.7397 North 279 321 5,200  Level Jacksonville Center
Sun 11:33:11 AM 30.6244 -81.7289 North 295 339 9,500 3,386 Climbing Jacksonville Center
Sun 11:34:30 AM 30.7333 -81.7736 341° North 318 366 13,100 2,590 Climbing Jacksonville Center
Sun 11:35:30 AM 30.8092 -81.8428 322° Northwest 348 400 15,500 2,450 Climbing Jacksonville Center
Sun 11:36:30 AM 30.8933 -81.9144 324° Northwest 358 412 18,000 2,350 Climbing Jacksonville Center
Sun 11:37:30 AM 30.9836 -81.9767 329° Northwest 364 419 20,200 1,850 Climbing Jacksonville Center
Sun 11:38:30 AM 31.0633 -82.0533 321° Northwest 375 432 21,700 1,400 Climbing Jacksonville Center
Sun 11:39:30 AM 31.1494 -82.1328 322° Northwest 380 437 23,000 1,100 Climbing Jacksonville Center
Sun 11:40:30 AM 31.2378 -82.2219 319° Northwest 398 458 23,900 1,250 Climbing Jacksonville Center
Sun 11:41:30 AM 31.3239 -82.3039 321° Northwest 403 464 25,500 1,550 Climbing Jacksonville Center
Sun 11:42:30 AM 31.4075 -82.3814 322° Northwest 403 464 27,000 1,350 Climbing Jacksonville Center
Sun 11:43:30 AM 31.4914 -82.4639 320° Northwest 397 457 28,200 1,150 Climbing Jacksonville Center
Sun 11:44:30 AM 31.5731 -82.5464 319° Northwest 397 457 29,300 1,000 Climbing Jacksonville Center
Sun 11:45:30 AM 31.6589 -82.6267 321° Northwest 392 451 30,200 938 Climbing Jacksonville Center
Sun 11:47:10 AM 31.8006 -82.7658 320° Northwest 410 472 31,800 938 Climbing Atlanta Center
Sun 11:48:10 AM 31.8911 -82.8550 320° Northwest 416 479 32,700 800 Climbing Atlanta Center
Sun 11:49:10 AM 31.9775 -82.9394 320° Northwest 411 473 33,400 650 Climbing Atlanta Center
Sun 11:50:10 AM 32.0681 -83.0292 320° Northwest 411 473 34,000 300 Climbing Atlanta Center
Sun 11:51:10 AM 32.1628 -83.1211 321° Northwest 421 484 34,000  Level Atlanta Center
Sun 11:52:10 AM 32.2511 -83.2258 315° West 438 504 34,000  Level Atlanta Center
Sun 11:53:10 AM 32.2728 -83.3683 280° West 421 484 34,000 100 Level Atlanta Center
Sun 11:54:10 AM 32.2714 -83.5156 269° West 427 491 34,200 650 Climbing Atlanta Center
Sun 11:55:10 AM 32.2678 -83.6753 269° West 434 499 35,300 1,150 Climbing Atlanta Center
Sun 11:56:10 AM 32.2683 -83.8153 270° West 444 511 36,500 1,700 Climbing Atlanta Center
Sun 11:57:10 AM 32.2642 -83.9481 268° West 434 499 38,700 2,050 Climbing Atlanta Center
Sun 11:58:10 AM 32.2664 -84.0733 271° West 406 467 40,600 1,350 Climbing Atlanta Center
Sun 11:59:10 AM 32.2619 -84.1986 268° West 389 448 41,400 750 Climbing Atlanta Center
Sun 12:00:10 PM 32.2619 -84.3261 270° West 389 448 42,100 750 Climbing Atlanta Center
Sun 12:01:10 PM 32.2614 -84.4564 270° West 389 448 42,900 450 Climbing Atlanta Center
Sun 12:02:10 PM 32.2547 -84.5842 267° West 389 448 43,000 50 Climbing Atlanta Center
Sun 12:03:10 PM 32.2186 -84.7139 252° West 402 463 43,000  Level Atlanta Center
Sun 12:04:10 PM 32.1822 -84.8464 252° West 414 476 43,000  Level Atlanta Center
Sun 12:05:10 PM 32.1458 -84.9858 253° West 428 493 43,000  Level Atlanta Center
Sun 12:06:10 PM 32.1133 -85.1153 254° West 433 498 43,000  Level Atlanta Center
Sun 12:07:10 PM 32.0767 -85.2447 252° West 427 491 43,000  Level Atlanta Center
Sun 12:08:10 PM 32.0400 -85.3814 252° West 427 491 43,000  Level Atlanta Center
Sun 12:09:10 PM 32.0050 -85.5158 253° West 427 491 43,000  Level Atlanta Center
Sun 12:10:10 PM 31.9700 -85.6497 253° West 427 491 43,000  Level Atlanta Center
Sun 12:11:10 PM 31.9306 -85.7861 251° West 436 502 43,000  Level Atlanta Center
Sun 12:12:10 PM 31.8994 -85.9175 254° West 436 502 43,000  Level Atlanta Center
Sun 12:13:10 PM 31.8700 -86.0564 256° West 436 502 43,000  Level Atlanta Center
Sun 12:14:10 PM 31.8514 -86.1781 260° West 431 496 43,000  Level Atlanta Center
Sun 12:15:10 PM 31.8361 -86.3197 263° West 431 496 43,000  Level Atlanta Center
Sun 12:16:10 PM 31.8189 -86.4586 262° West 431 496 43,000  Level Atlanta Center
Sun 12:17:10 PM 31.8017 -86.5972 262° West 431 496 43,000 -300 Level Atlanta Center
Sun 12:18:10 PM 31.7819 -86.7361 261° West 431 496 42,400 -1,100 Descending Atlanta Center
Sun 12:19:10 PM 31.7664 -86.8747 263° West 431 496 40,800 -1,650 Descending Atlanta Center
Sun 12:20:10 PM 31.7486 -87.0086 261° West 426 490 39,100 -1,900 Descending Atlanta Center
Sun 12:21:10 PM 31.7306 -87.1422 261° West 426 490 37,000 -2,200 Descending Atlanta Center
Sun 12:22:10 PM 31.7125 -87.2783 261° West 427 491 34,700 -2,400 Descending Atlanta Center
Sun 12:23:10 PM 31.6856 -87.4261 258° West 427 491 32,200 -2,416 Descending Atlanta Center
Sun 12:24:44 PM 31.5633 -87.5847 228° Southwest 417 480 28,500 -1,615 Descending Houston Center
Sun 12:25:46 PM 31.4881 -87.6825 228° Southwest 410 472 28,000 -242 Descending Houston Center
Sun 12:26:48 PM 31.4131 -87.7819 229° Southwest 409 471 28,000 -480 Level Houston Center
Sun 12:27:51 PM 31.3344 -87.8844 228° Southwest 419 482 27,000 -1,008 Descending Houston Center
Sun 12:28:53 PM 31.2567 -87.9867 228° Southwest 421 484 25,900 -1,161 Descending Houston Center
Sun 12:29:55 PM 31.1733 -88.0944 228° Southwest 416 479 24,600 -919 Descending Houston Center
Sun 12:30:57 PM 31.0892 -88.2042 228° Southwest 413 475 24,000 -629 Descending Houston Center
Sun 12:31:59 PM 31.0200 -88.2886 226° Southwest 409 471 23,300 -1,113 Descending Houston Center
Sun 12:33:01 PM 30.9489 -88.3853 229° Southwest 389 448 21,700 -1,694 Descending Houston Center
Sun 12:34:03 PM 30.8642 -88.4936 228° Southwest 380 437 19,800 -1,984 Descending Houston Center
Sun 12:35:05 PM 30.7953 -88.5819 228° Southwest 374 430 17,600 -2,032 Descending Houston Center
Sun 12:36:07 PM 30.7289 -88.6664 228° Southwest 358 412 15,600 -1,935 Descending Houston Center
Sun 12:37:09 PM 30.6961 -88.7761 251° West 360 414 13,600 -1,984 Descending Houston Center
Sun 12:38:11 PM 30.6664 -88.8789 251° West 342 394 11,500 -1,887 Descending Houston Center
Sun 12:39:13 PM 30.6342 -88.9808 250° West 295 339 9,700 -1,645 Descending Houston Center
Sun 12:40:15 PM 30.6072 -89.0544 247° West 259 298 8,100 -1,597 Descending Houston Center
Sun 12:41:17 PM 30.6089 -89.1308 271° West 243 280 6,400 -1,500 Descending Houston Center
Sun 12:44:23 PM 30.4900 -89.1669 165° South 217 250 1,900 -1,258 Descending Houston Center
Sun 12:45:25 PM 30.4556 -89.1289 136° Southeast 187 215 1,200 -629 Descending Houston Center
Sun 12:46:27 PM 30.4197 -89.0889 136° Southeast 172 198 600 -581 Descending Houston Center
Sun 12:48:00 PM 30.4000 -89.0667 134° Southeast  Level FlightAware Approximate
Sun 12:55:00 PM 30.4073 -89.0701 134° Southeast  Level Estimated

Login

Don't have an account? Register now (free) for customized features, flight alerts, and more!